Time;durP1;ratioP1;P1;durP2;ratioP2;P2;SDS_P1;SDS_P2;PMS_P1;PMS_P2;Temp;Humidity;BMP_temperature;BMP_pressure;BME280_temperature;BME280_humidity;BME280_pressure;Samples;Min_cycle;Max_cycle;Signal;HPM_P1;HPM_P2
2022/12/27 00:02:08;;;;;;;18.85;10.85;;;17.50;76.30;;;18.06;43.78;98567.69;5026823;28;20063;-79
2022/12/27 00:04:34;;;;;;;22.35;10.73;;;17.40;76.50;;;18.05;43.82;98566.09;5003523;28;20040;-79
2022/12/27 00:07:00;;;;;;;15.13;10.60;;;17.50;76.60;;;18.03;43.40;98564.81;5040991;28;20604;-79
2022/12/27 00:09:26;;;;;;;18.88;10.05;;;17.50;75.90;;;17.99;43.81;98557.25;5035859;28;20044;-78
2022/12/27 00:11:52;;;;;;;20.15;10.75;;;17.50;75.90;;;18.09;43.30;98549.75;5023211;28;20152;-79
2022/12/27 00:14:18;;;;;;;26.90;11.07;;;17.50;76.00;;;18.10;43.53;98541.22;5038053;28;20052;-78
2022/12/27 00:16:45;;;;;;;21.15;10.73;;;17.50;75.90;;;18.12;43.49;98535.41;4996794;28;20044;-79
2022/12/27 00:19:10;;;;;;;17.33;10.27;;;17.50;76.20;;;18.11;43.49;98537.31;5013276;28;20055;-79
2022/12/27 00:21:37;;;;;;;18.63;11.32;;;17.50;76.70;;;18.14;43.26;98544.09;5014772;28;20048;-79
2022/12/27 00:24:03;;;;;;;20.80;11.88;;;17.50;76.00;;;18.17;43.20;98546.19;5031384;28;20160;-79
2022/12/27 00:26:31;;;;;;;18.08;10.20;;;17.50;76.10;;;18.13;43.30;98545.22;5020441;28;20033;-79
2022/12/27 00:28:57;;;;;;;19.00;10.18;;;17.50;76.00;;;18.20;43.37;98553.78;5011348;28;20385;-79
2022/12/27 00:31:25;;;;;;;19.00;11.02;;;17.50;76.00;;;18.22;43.28;98548.75;5026287;28;20040;-79
2022/12/27 00:33:53;;;;;;;21.38;10.85;;;17.50;76.50;;;18.23;43.46;98539.38;5026753;28;20506;-79
2022/12/27 00:36:23;;;;;;;17.58;10.63;;;17.50;76.50;;;18.24;43.09;98540.97;5028789;28;20055;-79
2022/12/27 00:38:50;;;;;;;25.00;11.07;;;17.50;76.70;;;18.21;43.31;98545.19;5040529;28;20426;-79
2022/12/27 00:41:16;;;;;;;17.38;9.75;;;17.50;76.50;;;18.26;43.14;98537.91;5043726;28;20044;-79
2022/12/27 00:43:42;;;;;;;21.40;10.05;;;17.50;76.50;;;18.26;43.25;98546.16;5005410;28;20051;-79
2022/12/27 00:46:09;;;;;;;31.48;11.02;;;17.50;76.10;;;18.24;43.37;98538.22;4999931;28;20040;-79
2022/12/27 00:48:35;;;;;;;15.48;9.88;;;17.50;76.10;;;18.29;43.48;98531.75;5008969;28;20782;-79
2022/12/27 00:51:14;;;;;;;20.83;10.85;;;17.50;76.30;;;18.28;43.24;98522.72;5011079;28;20037;-79
2022/12/27 00:53:40;;;;;;;23.60;10.57;;;17.50;76.70;;;18.30;43.20;98514.97;5020609;28;20064;-79
2022/12/27 00:56:09;;;;;;;25.63;11.00;;;17.50;76.60;;;18.34;43.25;98512.34;5000304;28;20074;-79
2022/12/27 00:58:35;;;;;;;19.55;9.90;;;17.50;76.50;;;18.36;43.34;98518.31;5035866;28;20090;-79
2022/12/27 01:01:15;;;;;;;17.55;9.60;;;17.60;76.20;;;18.37;43.02;98522.69;5042125;28;20052;-79
2022/12/27 01:03:41;;;;;;;18.83;10.07;;;17.60;76.10;;;18.43;43.18;98524.09;5004488;28;20075;-79
2022/12/27 01:06:10;;;;;;;18.67;9.75;;;17.60;76.50;;;18.46;43.09;98508.88;5007903;28;20037;-79
2022/12/27 01:08:36;;;;;;;18.92;9.77;;;17.60;76.80;;;18.47;43.14;98511.31;5008615;28;20049;-79
2022/12/27 01:11:02;;;;;;;15.75;8.95;;;17.60;76.10;;;18.48;43.05;98510.16;5043709;28;20067;-79
2022/12/27 01:13:29;;;;;;;19.25;9.55;;;17.60;76.10;;;18.50;42.96;98520.84;5028452;28;20049;-79
2022/12/27 01:15:55;;;;;;;17.38;10.38;;;17.60;76.20;;;18.51;43.06;98516.94;5006818;28;20044;-79
2022/12/27 01:18:24;;;;;;;25.10;11.30;;;17.60;76.10;;;18.57;42.91;98513.66;4998324;28;20041;-79
2022/12/27 01:20:51;;;;;;;16.08;8.93;;;17.70;76.10;;;18.59;43.03;98510.56;5003389;28;20051;-79
2022/12/27 01:23:17;;;;;;;21.30;9.07;;;17.70;76.30;;;18.55;43.05;98509.66;4996604;28;20068;-79
2022/12/27 01:25:43;;;;;;;16.73;8.27;;;17.70;76.40;;;18.57;42.97;98499.09;5025395;28;20089;-79
2022/12/27 01:28:09;;;;;;;17.00;8.63;;;17.70;76.40;;;18.64;42.97;98499.38;5018319;28;20045;-79
2022/12/27 01:30:35;;;;;;;17.40;9.80;;;17.70;76.50;;;18.64;42.90;98502.13;5019271;28;20090;-79
2022/12/27 01:33:01;;;;;;;16.25;9.57;;;17.70;76.50;;;18.64;42.94;98493.88;4978481;28;20049;-78
2022/12/27 01:35:28;;;;;;;15.45;9.63;;;17.70;76.20;;;18.67;43.01;98495.97;5021621;28;20041;-79
2022/12/27 01:37:54;;;;;;;18.05;9.95;;;17.70;76.50;;;18.72;42.90;98494.97;5015409;28;20040;-79
2022/12/27 01:40:20;;;;;;;13.85;8.27;;;17.70;76.70;;;18.69;42.89;98507.44;5007274;28;20461;-79
2022/12/27 01:42:52;;;;;;;17.55;10.18;;;17.70;76.50;;;18.72;42.89;98512.25;5041585;28;20041;-79
2022/12/27 01:45:25;;;;;;;17.17;9.13;;;17.70;76.60;;;18.71;42.84;98509.84;5004400;28;20445;-79
2022/12/27 01:48:07;;;;;;;12.95;8.75;;;17.80;76.40;;;18.69;42.95;98504.69;5041758;28;20423;-79
2022/12/27 01:50:43;;;;;;;16.05;8.38;;;17.70;76.50;;;18.76;42.92;98502.25;5047005;28;20052;-79
2022/12/27 01:53:28;;;;;;;14.00;8.70;;;17.70;76.70;;;18.74;43.00;98503.69;5050440;28;20041;-79
2022/12/27 01:55:59;;;;;;;13.98;8.02;;;17.70;77.00;;;18.76;42.84;98509.69;5027889;28;20229;-79
2022/12/27 01:58:35;;;;;;;16.92;8.77;;;17.70;76.90;;;18.77;42.78;98505.78;5051662;28;20505;-79
2022/12/27 02:01:03;;;;;;;14.52;8.68;;;17.80;76.70;;;18.78;42.78;98507.41;5034697;28;20164;-79
2022/12/27 02:03:42;;;;;;;16.13;8.27;;;17.80;76.70;;;18.77;42.97;98509.34;5021643;28;20048;-79
2022/12/27 02:06:10;;;;;;;15.85;7.82;;;17.80;76.80;;;18.79;42.97;98507.06;5015691;28;20112;-79
2022/12/27 02:09:05;;;;;;;16.70;8.20;;;17.70;76.90;;;18.76;43.20;98513.22;5024114;28;20084;-79
2022/12/27 02:11:52;;;;;;;13.25;8.35;;;17.70;76.90;;;18.77;42.93;98511.28;5041333;28;20039;-79
2022/12/27 02:14:30;;;;;;;12.40;7.32;;;17.70;77.00;;;18.80;42.76;98516.09;5036913;28;20485;-79
2022/12/27 02:17:00;;;;;;;16.35;8.50;;;17.80;76.70;;;18.81;42.74;98521.28;5033032;28;20438;-79
2022/12/27 02:19:58;;;;;;;10.65;7.80;;;17.80;76.80;;;18.79;43.35;98518.06;5028965;28;20126;-79
2022/12/27 02:25:44;;;;;;;15.10;9.23;;;17.80;76.80;;;18.85;42.66;98515.91;5066795;28;20048;-79
2022/12/27 02:28:28;;;;;;;15.75;8.35;;;17.80;76.90;;;18.82;42.99;98522.88;5064473;28;20041;-79
2022/12/27 02:31:34;;;;;;;11.82;7.20;;;17.90;76.70;;;18.84;42.90;98530.78;5021095;28;20052;-79
2022/12/27 02:34:03;;;;;;;13.55;7.05;;;17.80;76.70;;;18.84;42.73;98545.34;5034746;28;20041;-79
2022/12/27 02:36:30;;;;;;;15.23;8.18;;;17.80;76.90;;;18.85;42.95;98552.44;5034851;28;20037;-79
2022/12/27 02:38:58;;;;;;;12.15;6.80;;;17.80;76.80;;;18.89;42.79;98549.03;5017391;28;20375;-79
2022/12/27 02:53:08;;;;;;;10.27;7.00;;;17.90;76.30;;;18.85;42.76;98554.38;5024397;28;20052;-79
2022/12/27 02:58:53;;;;;;;9.30;5.57;;;17.90;76.30;;;18.87;42.85;98580.38;5064715;28;20060;-79
2022/12/27 03:05:02;;;;;;;13.18;6.88;;;17.90;76.30;;;18.85;42.79;98574.44;5045164;28;20053;-79
2022/12/27 03:07:42;;;;;;;;;;;17.90;76.40;;;18.80;43.04;98582.88;5043952;28;20036;-79
2022/12/27 03:16:32;;;;;;;11.80;6.65;;;18.00;76.50;;;18.89;42.84;98584.75;5047996;28;20218;-79
2022/12/27 03:19:02;;;;;;;9.23;6.10;;;18.00;76.50;;;18.92;42.68;98593.13;5036457;28;20400;-79
2022/12/27 03:27:27;;;;;;;10.85;6.00;;;18.00;76.50;;;18.93;42.77;98602.16;5035152;28;20345;-79
2022/12/27 03:33:13;;;;;;;9.77;6.05;;;18.00;76.50;;;18.94;42.70;98603.78;5034109;28;20055;-79
2022/12/27 03:39:30;;;;;;;12.27;5.95;;;18.00;76.50;;;18.96;42.67;98615.28;4981272;28;20062;-78
2022/12/27 03:44:53;;;;;;;9.32;5.43;;;18.10;76.60;;;18.95;42.80;98619.94;5023253;28;20503;-79
2022/12/27 03:47:44;;;;;;;10.25;5.85;;;18.10;76.60;;;18.92;42.68;98620.59;5024980;28;20046;-79
2022/12/27 03:50:47;;;;;;;8.27;4.88;;;18.00;76.50;;;18.97;42.67;98634.16;5050918;28;20143;-79
2022/12/27 03:53:20;;;;;;;7.53;5.18;;;18.00;76.50;;;18.94;42.68;98642.28;5033783;28;20041;-79
2022/12/27 03:55:45;;;;;;;6.97;5.43;;;18.10;76.60;;;18.94;42.86;98634.03;5046991;28;20052;-79
2022/12/27 03:58:12;;;;;;;8.48;5.32;;;18.10;76.60;;;18.97;42.73;98642.41;5013984;28;20059;-79
2022/12/27 04:00:38;;;;;;;7.68;4.50;;;18.10;76.60;;;18.98;42.68;98652.28;5027119;28;20042;-79
2022/12/27 04:03:04;;;;;;;8.13;5.50;;;18.10;76.60;;;18.97;42.54;98653.41;5029854;28;20037;-79
2022/12/27 04:05:30;;;;;;;8.10;5.10;;;18.10;76.50;;;18.97;42.66;98656.16;5044906;28;20041;-79
2022/12/27 04:35:25;;;;;;;8.90;4.95;;;18.10;76.40;;;19.00;42.40;98709.66;5050238;28;20495;-79
2022/12/27 04:37:51;;;;;;;4.55;3.83;;;18.20;76.40;;;18.98;42.70;98715.50;5049992;28;20040;-79
2022/12/27 04:56:47;;;;;;;7.60;4.00;;;18.10;76.40;;;18.97;42.71;98754.31;5049367;28;20048;-79
2022/12/27 05:02:04;;;;;;;6.63;4.18;;;18.10;76.20;;;19.01;42.60;98760.75;5035841;28;20049;-79
2022/12/27 05:04:31;;;;;;;5.63;3.65;;;18.10;76.10;;;18.99;42.59;98754.78;5031841;28;20048;-79
2022/12/27 05:06:57;;;;;;;6.00;4.35;;;18.20;76.20;;;18.99;42.71;98763.03;5023503;28;20050;-79
2022/12/27 05:14:56;;;;;;;5.53;4.18;;;18.10;76.10;;;19.00;42.43;98781.13;5036665;28;20509;-79
2022/12/27 05:17:22;;;;;;;5.00;4.10;;;18.20;76.20;;;19.01;42.62;98793.75;5064215;28;20082;-79
2022/12/27 05:19:48;;;;;;;4.68;3.55;;;18.10;76.10;;;18.99;42.47;98791.31;5051194;28;20828;-79
2022/12/27 05:27:44;;;;;;;6.32;3.97;;;18.10;76.40;;;18.95;42.55;98801.34;5051962;28;20040;-79
2022/12/27 05:30:11;;;;;;;5.72;3.90;;;18.10;76.30;;;18.97;42.48;98817.53;5048306;28;20090;-79
2022/12/27 05:32:37;;;;;;;5.30;4.13;;;18.20;76.20;;;18.94;42.52;98813.47;5036058;28;20543;-79
2022/12/27 05:35:03;;;;;;;6.38;3.95;;;18.10;76.80;;;18.97;42.45;98814.78;5031023;28;20109;-79
2022/12/27 05:37:30;;;;;;;5.60;4.10;;;18.20;76.10;;;18.97;42.54;98821.06;5028466;28;20036;-79
2022/12/27 05:39:56;;;;;;;5.05;3.63;;;18.10;76.30;;;18.96;43.00;98829.66;5031511;28;20168;-79
2022/12/27 06:22:19;;;;;;;4.57;3.42;;;18.10;76.10;;;18.85;42.37;98950.09;5068798;28;20040;-78
2022/12/27 06:24:45;;;;;;;4.60;3.22;;;18.00;76.00;;;18.87;42.66;98967.88;5031574;28;20055;-78
2022/12/27 06:27:12;;;;;;;2.90;2.58;;;18.10;76.00;;;18.84;42.51;98976.78;5049144;28;20047;-78
2022/12/27 06:29:38;;;;;;;4.40;3.33;;;18.00;76.10;;;18.81;42.68;98993.94;5064720;28;20040;-78
2022/12/27 06:32:04;;;;;;;6.65;3.58;;;18.00;76.10;;;18.87;42.52;99009.13;5032081;28;20056;-78
2022/12/27 06:34:30;;;;;;;3.83;2.67;;;18.00;76.20;;;18.82;42.64;99019.47;5046296;28;20045;-78
2022/12/27 06:36:57;;;;;;;5.88;3.30;;;18.00;76.30;;;18.82;42.53;99031.25;5049834;28;20475;-80
2022/12/27 06:39:23;;;;;;;8.18;3.63;;;18.00;76.20;;;18.81;42.66;99032.41;5015037;28;20044;-79
2022/12/27 06:41:49;;;;;;;4.10;2.95;;;18.00;76.10;;;18.80;42.49;99033.56;5031928;28;20036;-79
2022/12/27 06:44:15;;;;;;;6.50;3.50;;;17.90;75.90;;;18.79;42.54;99033.88;5034621;28;20055;-79
2022/12/27 06:46:41;;;;;;;4.65;3.15;;;17.90;75.90;;;18.78;42.51;99043.25;5034959;28;20036;-79
2022/12/27 06:49:09;;;;;;;5.78;3.17;;;17.90;76.00;;;18.73;42.60;99041.44;5030397;28;20136;-79
2022/12/27 06:51:35;;;;;;;3.70;3.05;;;17.90;76.00;;;18.74;42.72;99047.72;5038430;28;20041;-79
2022/12/27 06:54:02;;;;;;;3.72;3.30;;;17.90;76.30;;;18.75;42.63;99063.06;5031873;28;20132;-79
2022/12/27 06:56:29;;;;;;;3.00;2.45;;;17.90;76.30;;;18.71;42.87;99070.34;5000127;28;20555;-79
2022/12/27 06:58:55;;;;;;;6.32;3.30;;;17.90;76.30;;;18.76;42.79;99076.53;5034395;28;20037;-79
2022/12/27 07:01:23;;;;;;;4.03;2.83;;;17.90;76.40;;;18.71;42.67;99090.41;5022395;28;20048;-79
2022/12/27 07:03:55;;;;;;;3.25;2.95;;;17.90;76.20;;;18.76;42.61;99094.97;5032298;28;20446;-79
2022/12/27 07:06:23;;;;;;;3.45;2.55;;;17.90;76.30;;;18.74;42.75;99102.69;5030610;28;20073;-79
2022/12/27 07:08:49;;;;;;;3.20;2.65;;;17.80;76.30;;;18.69;42.87;99100.88;5029857;28;20072;-79
2022/12/27 07:11:16;;;;;;;5.97;3.13;;;17.80;76.30;;;18.69;42.97;99108.34;5032711;28;20450;-79
2022/12/27 07:13:44;;;;;;;3.00;2.47;;;17.80;76.30;;;18.69;42.93;99114.63;5029476;28;20045;-79
2022/12/27 07:16:13;;;;;;;4.30;2.97;;;17.80;76.30;;;18.73;42.52;99125.81;5031758;28;20041;-79
2022/12/27 07:18:39;;;;;;;4.90;2.85;;;17.80;76.20;;;18.72;42.50;99130.47;5016269;28;20056;-79
2022/12/27 07:21:11;;;;;;;3.47;2.58;;;17.70;76.10;;;18.69;42.82;99142.09;5021062;28;20057;-78
2022/12/27 07:23:37;;;;;;;3.77;2.37;;;17.70;76.10;;;18.66;42.79;99148.25;5045395;28;20041;-79
2022/12/27 07:26:11;;;;;;;4.55;2.80;;;17.70;76.10;;;18.64;42.89;99159.53;5030402;28;20044;-79
2022/12/27 07:28:37;;;;;;;3.67;2.70;;;17.70;76.60;;;18.69;42.86;99161.34;5027862;28;20041;-78
2022/12/27 07:31:08;;;;;;;7.32;3.33;;;17.70;76.60;;;18.64;42.85;99161.50;5029149;28;20048;-79
2022/12/27 07:33:35;;;;;;;3.65;2.80;;;17.70;76.20;;;18.69;42.86;99175.09;5048587;28;20045;-78
2022/12/27 07:36:01;;;;;;;2.50;2.25;;;17.70;76.10;;;18.65;42.87;99182.34;5049195;28;20055;-79
2022/12/27 07:38:27;;;;;;;4.80;3.90;;;17.70;76.10;;;18.67;42.75;99182.81;5033799;28;20119;-79
2022/12/27 07:40:54;;;;;;;4.07;2.70;;;17.70;76.30;;;18.64;42.90;99180.72;5036088;28;20096;-79
2022/12/27 07:43:20;;;;;;;3.63;2.83;;;17.60;76.80;;;18.69;42.81;99183.31;5036025;28;20067;-79
2022/12/27 07:45:46;;;;;;;4.95;3.13;;;17.70;76.70;;;18.66;42.58;99197.72;5047026;28;20040;-79
2022/12/27 07:48:12;;;;;;;4.05;2.70;;;17.70;76.40;;;18.66;42.71;99205.94;5047484;28;20051;-79
2022/12/27 07:50:38;;;;;;;4.78;2.97;;;17.60;76.70;;;18.69;42.67;99207.25;5051463;28;20407;-79
2022/12/27 07:53:04;;;;;;;4.13;2.63;;;17.60;76.70;;;18.66;42.82;99208.69;5035612;28;20051;-79
2022/12/27 07:55:30;;;;;;;2.63;2.10;;;17.70;76.30;;;18.65;42.84;99220.81;5038099;28;20044;-79
2022/12/27 07:57:57;;;;;;;3.95;2.72;;;17.60;76.40;;;18.57;42.84;99225.16;5034620;28;20526;-79
2022/12/27 08:00:23;;;;;;;6.75;3.20;;;17.60;76.70;;;18.64;42.79;99228.22;5021121;28;20179;-79
2022/12/27 08:02:49;;;;;;;5.20;3.10;;;17.60;76.90;;;18.64;42.58;99225.50;5023411;28;20042;-79
2022/12/27 08:05:15;;;;;;;3.92;2.90;;;17.60;76.70;;;18.70;42.76;99228.09;5067593;28;20683;-79
2022/12/27 08:07:41;;;;;;;4.40;2.92;;;17.60;76.50;;;18.62;42.79;99236.00;5041298;28;20047;-79
2022/12/27 08:10:09;;;;;;;4.03;2.75;;;17.60;76.50;;;18.64;42.56;99241.97;5050095;28;20465;-79
2022/12/27 08:12:36;;;;;;;3.22;2.10;;;17.60;76.40;;;18.66;42.91;99245.22;5036003;28;20060;-79
2022/12/27 08:15:03;;;;;;;3.97;2.90;;;17.50;77.00;;;18.64;42.87;99249.41;5047990;28;20045;-80
2022/12/27 08:17:29;;;;;;;3.05;2.47;;;17.50;77.10;;;18.63;42.64;99250.53;5037068;28;20397;-79
2022/12/27 08:19:55;;;;;;;3.80;2.10;;;17.50;77.30;;;18.71;42.69;99265.44;5035598;28;20048;-79
2022/12/27 08:22:22;;;;;;;4.10;3.10;;;17.50;77.10;;;18.66;42.61;99264.44;5033673;28;20101;-79
2022/12/27 08:24:48;;;;;;;3.58;2.60;;;17.50;77.00;;;18.73;42.50;99275.00;5035484;28;20044;-78
2022/12/27 08:27:22;;;;;;;4.68;2.33;;;17.50;76.90;;;18.67;42.49;99276.25;5017030;28;20422;-78
2022/12/27 08:29:49;;;;;;;4.30;2.50;;;17.50;76.80;;;18.69;42.46;99278.69;5033087;28;20040;-78
2022/12/27 08:32:15;;;;;;;4.72;2.80;;;17.50;77.10;;;18.65;42.73;99281.28;5031725;28;20040;-78
2022/12/27 08:34:41;;;;;;;2.85;2.35;;;17.50;77.20;;;18.63;42.81;99284.31;5030877;28;20097;-79
2022/12/27 08:37:07;;;;;;;6.03;2.85;;;17.50;77.00;;;18.67;42.63;99290.00;5005405;28;20061;-80
2022/12/27 08:39:34;;;;;;;8.18;2.35;;;17.60;76.70;;;18.69;42.44;99282.25;5030722;28;20127;-79
2022/12/27 08:42:00;;;;;;;3.47;2.30;;;17.60;76.70;;;18.71;42.46;99285.50;5031556;28;20036;-78
2022/12/27 08:44:27;;;;;;;3.95;2.42;;;17.50;76.60;;;18.74;42.45;99300.53;5031340;28;20678;-78
2022/12/27 08:46:53;;;;;;;4.35;3.10;;;17.50;76.70;;;18.72;42.52;99298.09;5028499;28;20108;-79
2022/12/27 08:49:19;;;;;;;2.75;2.33;;;17.50;76.70;;;18.70;42.64;99300.38;5011515;28;20167;-79
2022/12/27 08:51:45;;;;;;;3.92;2.58;;;17.40;76.90;;;18.67;42.34;99306.47;5046380;28;20052;-79
2022/12/27 08:54:11;;;;;;;3.35;2.60;;;17.40;76.80;;;18.63;42.39;99313.75;5035639;28;20037;-79
2022/12/27 08:56:37;;;;;;;3.95;2.65;;;17.50;76.70;;;18.63;42.40;99320.03;5030870;28;20086;-78
2022/12/27 08:59:04;;;;;;;9.43;2.45;;;17.50;76.70;;;18.60;42.41;99326.16;5033039;28;20054;-78
2022/12/27 09:01:30;;;;;;;3.85;2.65;;;17.50;76.60;;;18.60;42.41;99319.88;5026962;28;20036;-78
2022/12/27 09:03:56;;;;;;;2.45;2.08;;;17.40;76.70;;;18.62;42.48;99332.16;5030615;28;20116;-79
2022/12/27 09:06:23;;;;;;;8.55;3.45;;;17.40;76.80;;;18.60;42.26;99333.59;5047535;28;20097;-78
2022/12/27 09:08:49;;;;;;;7.32;3.78;;;17.40;76.70;;;18.58;42.54;99336.66;5026133;28;20054;-78
2022/12/27 09:11:25;;;;;;;2.33;1.98;;;17.40;76.60;;;18.62;42.45;99348.66;5016206;28;20048;-78
2022/12/27 09:13:52;;;;;;;3.42;2.42;;;17.40;76.60;;;18.55;42.61;99341.97;5021983;28;20808;-78
2022/12/27 09:16:21;;;;;;;4.07;2.42;;;17.50;76.60;;;18.58;42.39;99346.84;5001681;28;20116;-78
2022/12/27 09:18:49;;;;;;;4.22;2.65;;;17.50;76.70;;;18.60;42.51;99345.41;5015787;28;20040;-78
2022/12/27 09:21:16;;;;;;;5.05;2.20;;;17.50;76.60;;;18.58;42.25;99339.41;5000787;28;20857;-78
2022/12/27 09:23:42;;;;;;;4.30;2.35;;;17.40;76.70;;;18.61;42.28;99340.72;5013224;28;20047;-78
2022/12/27 09:26:13;;;;;;;6.03;2.55;;;17.40;76.30;;;18.60;42.24;99344.59;5013086;28;20064;-78
2022/12/27 09:28:39;;;;;;;3.83;2.03;;;17.40;76.10;;;18.57;42.35;99339.72;5044946;28;20051;-78
2022/12/27 09:31:07;;;;;;;4.88;2.83;;;17.50;76.30;;;18.60;42.42;99350.91;5028278;28;20045;-78
2022/12/27 09:33:33;;;;;;;5.50;2.60;;;17.50;76.60;;;18.63;42.46;99352.22;5026742;28;20045;-78
2022/12/27 09:36:14;;;;;;;5.05;2.00;;;17.40;76.90;;;18.66;42.59;99354.31;5029671;28;20048;-78
2022/12/27 09:38:41;;;;;;;4.18;2.42;;;17.40;76.90;;;18.67;42.27;99361.44;5043664;28;20040;-78
2022/12/27 09:41:36;;;;;;;4.63;2.88;;;17.40;76.60;;;18.69;42.19;99358.38;5045398;28;20048;-78
2022/12/27 09:44:31;;;;;;;2.67;2.03;;;17.40;76.50;;;18.65;42.10;99364.50;5027620;28;20045;-78
2022/12/27 09:47:18;;;;;;;5.40;3.20;;;17.50;76.20;;;18.80;45.81;99366.09;5050308;28;20118;-78
2022/12/27 09:49:54;;;;;;;9.15;3.85;;;17.50;81.70;;;18.69;44.16;99353.69;5047522;28;20892;-78
2022/12/27 09:52:41;;;;;;;4.13;2.53;;;17.60;78.80;;;18.63;44.12;99355.75;5030899;28;20052;-77
2022/12/27 09:55:20;;;;;;;4.15;2.80;;;17.60;78.50;;;18.64;43.57;99351.06;5029602;28;20043;-78
2022/12/27 09:57:46;;;;;;;5.90;2.45;;;17.60;78.00;;;18.71;43.72;99359.69;5019303;28;20598;-78
2022/12/27 10:00:19;;;;;;;4.45;2.72;;;17.50;78.00;;;18.69;43.17;99356.44;5030884;28;20084;-78
2022/12/27 10:02:46;;;;;;;3.42;2.47;;;17.50;77.70;;;18.65;43.30;99353.53;5051827;28;20412;-78
2022/12/27 10:05:23;;;;;;;3.45;2.60;;;17.60;77.70;;;18.66;43.74;99352.38;5051109;28;20056;-78
2022/12/27 10:08:22;;;;;;;4.97;2.25;;;17.50;77.90;;;18.66;43.49;99348.81;5025120;28;20151;-78
2022/12/27 10:11:01;;;;;;;7.47;2.75;;;17.50;77.90;;;18.60;43.43;99356.41;5055888;28;20045;-78
2022/12/27 10:13:48;;;;;;;4.70;2.47;;;17.50;77.80;;;18.59;43.01;99346.50;5034124;28;20472;-78
2022/12/27 10:16:35;;;;;;;4.93;2.83;;;17.50;77.60;;;18.64;42.96;99362.06;5030114;28;20075;-78
2022/12/27 10:19:45;;;;;;;5.75;2.65;;;17.50;77.40;;;18.66;43.00;99360.63;5064475;28;20045;-78
2022/12/27 10:22:35;;;;;;;10.50;3.28;;;17.50;77.50;;;18.67;43.22;99358.69;5009194;28;20058;-78
2022/12/27 10:25:11;;;;;;;11.95;3.17;;;17.50;77.60;;;18.66;42.68;99354.31;5041876;28;20065;-78
2022/12/27 10:27:37;;;;;;;6.45;2.65;;;17.50;77.30;;;18.72;42.93;99366.00;5048190;28;20473;-78
2022/12/27 10:30:11;;;;;;;4.38;2.78;;;17.50;77.00;;;18.72;42.79;99357.75;5026324;28;20055;-78
2022/12/27 10:32:41;;;;;;;6.28;2.63;;;17.50;77.20;;;18.64;42.76;99351.06;5033798;28;20045;-80
2022/12/27 10:35:19;;;;;;;6.15;2.58;;;17.60;77.20;;;18.59;42.88;99353.94;5003217;28;20120;-79
2022/12/27 10:37:45;;;;;;;6.10;2.65;;;17.60;76.80;;;18.63;42.90;99350.28;5048500;28;20037;-79
2022/12/27 10:40:27;;;;;;;9.85;2.70;;;17.50;77.10;;;18.72;43.53;99360.50;5045788;28;20173;-80
2022/12/27 10:43:26;;;;;;;5.57;2.42;;;17.60;78.50;;;18.67;43.23;99355.94;5048818;28;20101;-80
2022/12/27 10:45:52;;;;;;;14.65;3.55;;;17.60;77.50;;;18.66;46.58;99359.81;5034731;28;20048;-79
2022/12/27 10:48:23;;;;;;;11.93;2.88;;;17.60;81.60;;;18.81;45.53;99366.91;5022787;28;20050;-80
2022/12/27 10:50:51;;;;;;;11.48;2.40;;;17.70;81.30;;;18.75;44.77;99362.59;5037533;28;20045;-80
2022/12/27 10:53:47;;;;;;;4.85;2.80;;;17.70;80.00;;;18.68;44.66;99354.81;5069891;28;20472;-80
2022/12/27 10:56:25;;;;;;;12.68;2.63;;;17.70;79.50;;;18.73;44.45;99359.38;5051106;28;20056;-80
2022/12/27 10:59:03;;;;;;;6.25;2.60;;;17.60;79.90;;;18.73;44.63;99357.44;5038006;28;20282;-80
2022/12/27 11:01:31;;;;;;;7.70;3.03;;;17.70;79.50;;;18.78;44.38;99360.09;5043657;28;20059;-80
2022/12/27 11:04:09;;;;;;;13.75;2.63;;;17.60;79.60;;;18.74;44.34;99363.75;5036191;28;20637;-80
2022/12/27 11:06:35;;;;;;;16.50;3.78;;;17.60;79.30;;;18.75;44.08;99357.97;5069309;28;20045;-81
2022/12/27 11:09:42;;;;;;;5.57;2.30;;;17.60;79.00;;;18.72;44.25;99361.31;5011579;28;20104;-81
2022/12/27 11:12:31;;;;;;;5.97;2.78;;;17.60;79.00;;;18.71;44.01;99356.94;5050138;28;20057;-80
2022/12/27 11:15:19;;;;;;;10.75;2.63;;;17.60;78.70;;;18.72;43.87;99358.56;5057008;28;20037;-81
2022/12/27 11:17:54;;;;;;;4.95;2.50;;;17.60;78.80;;;18.72;44.07;99361.31;5041400;28;20103;-79
2022/12/27 11:20:20;;;;;;;11.70;2.50;;;17.60;79.00;;;18.69;43.66;99359.19;5041860;28;20060;-79
2022/12/27 11:23:09;;;;;;;7.43;2.15;;;17.60;78.50;;;18.66;43.63;99365.31;5076090;28;20065;-80
2022/12/27 11:25:58;;;;;;;11.38;2.40;;;17.60;78.30;;;18.66;43.60;99357.06;5073208;28;20095;-81
2022/12/27 11:28:49;;;;;;;14.43;2.38;;;17.60;78.40;;;18.69;43.46;99356.44;5007790;28;20468;-81
2022/12/27 11:31:28;;;;;;;3.60;2.33;;;17.60;78.30;;;18.66;43.72;99357.88;5031734;28;20131;-81
2022/12/27 11:34:15;;;;;;;11.27;3.53;;;17.60;78.20;;;18.65;43.41;99355.47;5041606;28;20045;-80
2022/12/27 11:36:46;;;;;;;4.32;2.67;;;17.60;77.90;;;18.65;43.47;99355.47;4989273;28;20429;-79
2022/12/27 11:39:56;;;;;;;7.97;2.88;;;17.60;77.70;;;18.58;43.61;99346.84;4962322;28;20619;-80
2022/12/27 11:42:37;;;;;;;5.40;2.50;;;17.60;77.70;;;18.59;43.37;99359.44;4988590;28;20042;-80
2022/12/27 11:45:22;;;;;;;8.13;2.72;;;17.60;77.70;;;18.63;43.42;99354.97;4983573;28;20042;-80
2022/12/27 11:48:03;;;;;;;12.23;2.85;;;17.60;77.90;;;18.62;43.39;99342.31;4984972;28;20042;-80
2022/12/27 11:50:54;;;;;;;6.70;2.22;;;17.60;78.00;;;18.58;43.23;99338.59;4982494;28;20045;-80
2022/12/27 11:53:53;;;;;;;3.78;2.20;;;17.60;77.60;;;18.59;43.40;99349.25;5008960;28;20046;-79
2022/12/27 11:56:29;;;;;;;4.35;2.33;;;17.60;77.50;;;18.60;43.27;99345.41;5006732;28;20050;-79
2022/12/27 11:59:29;;;;;;;4.20;2.15;;;17.70;77.50;;;18.62;43.07;99345.06;4976657;28;20129;-80
2022/12/27 12:02:26;;;;;;;18.75;2.13;;;17.70;77.20;;;18.64;43.14;99359.31;4996517;28;20054;-80
2022/12/27 12:04:59;;;;;;;8.93;2.67;;;17.60;77.30;;;18.63;43.26;99352.22;4993187;28;20084;-80
2022/12/27 12:07:26;;;;;;;9.18;3.45;;;17.70;77.50;;;18.55;43.29;99344.72;5005681;28;20062;-80
2022/12/27 12:10:23;;;;;;;8.52;2.17;;;17.60;77.20;;;18.54;43.30;99356.81;5071398;28;20143;-80
2022/12/27 12:13:10;;;;;;;5.57;2.13;;;17.60;77.20;;;18.50;43.35;99362.16;5040783;28;20131;-80
2022/12/27 12:15:58;;;;;;;5.97;2.42;;;17.60;77.10;;;18.53;43.25;99361.50;5055242;28;20289;-80
2022/12/27 12:18:59;;;;;;;3.55;2.40;;;17.60;77.30;;;18.49;43.56;99368.75;5071309;28;20056;-80
2022/12/27 12:21:47;;;;;;;10.27;3.00;;;17.60;77.40;;;18.48;43.46;99358.88;5025369;28;20044;-80
2022/12/27 12:24:40;;;;;;;2.65;1.83;;;17.60;77.40;;;18.49;43.41;99363.25;5033650;28;20624;-80
2022/12/27 12:27:25;;;;;;;5.93;2.10;;;17.60;77.20;;;18.47;43.29;99357.28;5055141;28;20578;-80
2022/12/27 12:30:32;;;;;;;8.55;2.13;;;17.60;77.10;;;18.44;43.30;99358.72;5060860;28;20036;-80
2022/12/27 12:33:28;;;;;;;3.20;2.25;;;17.60;77.00;;;18.48;43.50;99350.66;5053615;28;20144;-80
2022/12/27 12:36:31;;;;;;;7.32;2.47;;;17.60;77.10;;;18.49;43.22;99355.00;5041096;28;20764;-81
2022/12/27 12:39:02;;;;;;;2.17;1.58;;;17.60;76.70;;;18.48;43.17;99347.09;5068628;28;20048;-80
2022/12/27 12:41:33;;;;;;;9.20;3.45;;;17.60;76.80;;;18.50;43.13;99344.84;5038615;28;20056;-80
2022/12/27 12:44:45;;;;;;;4.82;2.17;;;17.60;76.80;;;18.49;43.01;99351.47;5057095;28;20068;-80
2022/12/27 12:47:30;;;;;;;12.98;3.30;;;17.60;76.70;;;18.49;42.94;99352.25;5058571;28;20072;-80
2022/12/27 12:50:12;;;;;;;6.20;2.38;;;17.60;76.70;;;18.53;43.09;99355.22;5040058;28;20049;-80
2022/12/27 12:52:53;;;;;;;7.63;2.67;;;17.60;77.00;;;18.52;43.18;99365.41;5057561;28;20108;-80
2022/12/27 12:55:47;;;;;;;6.85;2.22;;;17.60;77.10;;;18.46;43.08;99361.13;5058275;28;20051;-80
2022/12/27 12:58:50;;;;;;;5.25;2.58;;;17.60;76.90;;;18.50;43.24;99369.56;5057229;28;20049;-80
2022/12/27 13:01:33;;;;;;;15.15;2.40;;;17.60;76.80;;;18.46;43.14;99374.88;5054306;28;20040;-80
2022/12/27 13:04:24;;;;;;;7.70;2.67;;;17.60;76.60;;;18.49;43.23;99366.00;5037519;28;20037;-80